Tuba City, Arizona
Current Conditions -  °F | °C
As of 4:54 PM on Friday 24 Oct 2014 (Local Time) from KGCN Reporting Station
Smoke Smoke  
Wind Chill: 74°   Ceiling: Unl
Heat Index: 74°   Visibility: 10mi
Dew Point: 19°   Wind: 9mph
Humidity: 13%   Direction: 240°WSW
Pressure: 30.31"   Gusts: NA
Location:  36.13°N, 111.23°W
Report Text: KGCN 242254Z 24008KT 10SM FU CLR 23/M07 A3031 RMK AO2 SLP206 T02331072
Loading
Personal Weather Stations






























Interactive Weather Map
Tropical Storm Tracking
New forecast layout! Learn more

10-Day Weather Forecast

Advertisements
Track Severe Weather on mobile